Time,TemperatureF,DewpointF,PressureIn,WindDirection,WindDirectionDegrees,WindSpeedMPH,WindSpeedGustMPH,Humidity,HourlyPrecipIn,Conditions,Clouds,dailyrainin,SoftwareType,DateUTC
2013-06-04 00:04:00,53.0,50.0,30.09,West,264,1.0,2.0,89,0.00,,,0.00,weatherlink.com 1.10,2013-06-04 07:04:00,
2013-06-04 00:19:00,52.5,50.0,30.09,West,269,2.0,2.0,90,0.00,,,0.00,weatherlink.com 1.10,2013-06-04 07:19:00,
2013-06-04 00:34:00,52.0,49.0,30.09,West,277,1.0,2.0,90,0.00,,,0.00,weatherlink.com 1.10,2013-06-04 07:34:00,
2013-06-04 00:49:00,51.5,49.0,30.09,West,276,1.0,2.0,91,0.00,,,0.00,weatherlink.com 1.10,2013-06-04 07:49:00,
2013-06-04 01:04:00,51.1,49.0,30.09,WSW,255,0.0,1.0,92,0.00,,,0.00,weatherlink.com 1.10,2013-06-04 08:04:00,
2013-06-04 01:19:00,50.8,49.0,30.09,West,278,1.0,1.0,93,0.00,,,0.00,weatherlink.com 1.10,2013-06-04 08:19:00,
2013-06-04 01:34:00,50.1,49.0,30.09,WSW,258,2.0,2.0,94,0.00,,,0.00,weatherlink.com 1.10,2013-06-04 08:34:00,
2013-06-04 01:49:00,49.7,48.0,30.09,West,266,3.0,3.0,94,0.00,,,0.00,weatherlink.com 1.10,2013-06-04 08:49:00,
2013-06-04 02:04:00,49.4,48.0,30.09,WNW,284,1.0,2.0,95,0.00,,,0.00,weatherlink.com 1.10,2013-06-04 09:04:00,
2013-06-04 02:19:00,49.4,48.0,30.10,West,262,1.0,2.0,95,0.00,,,0.00,weatherlink.com 1.10,2013-06-04 09:19:00,
2013-06-04 02:34:00,49.1,48.0,30.09,West,264,1.0,2.0,95,0.00,,,0.00,weatherlink.com 1.10,2013-06-04 09:34:00,
2013-06-04 02:49:00,49.0,48.0,30.10,WSW,246,0.0,1.0,96,0.00,,,0.00,weatherlink.com 1.10,2013-06-04 09:49:00,
2013-06-04 03:04:00,48.8,48.0,30.10,WSW,250,1.0,1.0,96,0.00,,,0.00,weatherlink.com 1.10,2013-06-04 10:04:00,
2013-06-04 03:19:00,48.6,48.0,30.10,West,273,1.0,2.0,96,0.00,,,0.00,weatherlink.com 1.10,2013-06-04 10:19:00,
2013-06-04 03:34:00,48.4,47.0,30.10,West,266,1.0,1.0,96,0.00,,,0.00,weatherlink.com 1.10,2013-06-04 10:34:00,
2013-06-04 03:49:00,48.6,48.0,30.10,West,266,1.0,1.0,97,0.00,,,0.00,weatherlink.com 1.10,2013-06-04 10:49:00,
2013-06-04 04:04:00,47.9,47.0,30.10,West,269,1.0,2.0,96,0.00,,,0.00,weatherlink.com 1.10,2013-06-04 11:04:00,
2013-06-04 04:19:00,47.8,47.0,30.10,West,276,2.0,2.0,97,0.00,,,0.00,weatherlink.com 1.10,2013-06-04 11:19:00,
2013-06-04 04:34:00,47.8,47.0,30.10,West,266,1.0,2.0,97,0.00,,,0.00,weatherlink.com 1.10,2013-06-04 11:34:00,
2013-06-04 04:49:00,47.7,47.0,30.10,WSW,257,1.0,1.0,97,0.00,,,0.00,weatherlink.com 1.10,2013-06-04 11:49:00,
2013-06-04 05:04:00,47.0,46.0,30.10,West,267,0.0,2.0,97,0.00,,,0.00,weatherlink.com 1.10,2013-06-04 12:04:00,
2013-06-04 05:19:00,47.2,47.0,30.10,WSW,245,0.0,1.0,98,0.00,,,0.00,weatherlink.com 1.10,2013-06-04 12:19:00,
2013-06-04 05:34:00,47.4,47.0,30.10,WSW,240,1.0,1.0,97,0.00,,,0.00,weatherlink.com 1.10,2013-06-04 12:34:00,
2013-06-04 05:49:00,48.4,48.0,30.11,WSW,255,0.0,1.0,97,0.00,,,0.00,weatherlink.com 1.10,2013-06-04 12:49:00,
2013-06-04 06:04:00,50.0,49.0,30.11,West,270,1.0,1.0,95,0.00,,,0.00,weatherlink.com 1.10,2013-06-04 13:04:00,
2013-06-04 06:20:00,51.0,50.0,30.11,West,269,0.0,1.0,95,0.00,,,0.00,weatherlink.com 1.10,2013-06-04 13:20:00,
2013-06-04 06:35:00,54.2,51.0,30.11,NNE,30,2.0,3.0,90,0.00,,,0.00,weatherlink.com 1.10,2013-06-04 13:35:00,
2013-06-04 06:50:00,52.6,50.0,30.11,NNE,25,2.0,4.0,91,0.00,,,0.00,weatherlink.com 1.10,2013-06-04 13:50:00,
2013-06-04 07:05:00,53.0,51.0,30.11,NNE,25,2.0,3.0,91,0.00,,,0.00,weatherlink.com 1.10,2013-06-04 14:05:00,
2013-06-04 07:20:00,53.4,51.0,30.11,NNE,22,2.0,5.0,91,0.00,,,0.00,weatherlink.com 1.10,2013-06-04 14:20:00,
2013-06-04 07:35:00,53.9,51.0,30.11,NNE,29,3.0,4.0,89,0.00,,,0.00,weatherlink.com 1.10,2013-06-04 14:35:00,
2013-06-04 07:50:00,54.1,51.0,30.11,NE,34,3.0,4.0,89,0.00,,,0.00,weatherlink.com 1.10,2013-06-04 14:50:00,
2013-06-04 08:05:00,55.2,51.0,30.11,NE,51,3.0,3.0,87,0.00,,,0.00,weatherlink.com 1.10,2013-06-04 15:05:00,
2013-06-04 08:20:00,56.3,52.0,30.11,NE,47,0.0,4.0,84,0.00,,,0.00,weatherlink.com 1.10,2013-06-04 15:20:00,
2013-06-04 08:50:00,58.3,52.0,30.11,NE,42,2.0,2.0,80,0.00,,,0.00,weatherlink.com 1.10,2013-06-04 15:50:00,
2013-06-04 09:05:00,59.0,53.0,30.11,NE,44,0.0,1.0,79,0.00,,,0.00,weatherlink.com 1.10,2013-06-04 16:05:00,
2013-06-04 09:20:00,61.2,53.0,30.11,NE,44,0.0,1.0,75,0.00,,,0.00,weatherlink.com 1.10,2013-06-04 16:20:00,
2013-06-04 09:35:00,61.6,53.0,30.11,ENE,60,1.0,2.0,73,0.00,,,0.00,weatherlink.com 1.10,2013-06-04 16:35:00,
2013-06-04 09:50:00,62.8,54.0,30.11,ENE,58,1.0,2.0,72,0.00,,,0.00,weatherlink.com 1.10,2013-06-04 16:50:00,
2013-06-04 10:05:00,63.7,53.0,30.10,ENE,71,0.0,2.0,69,0.00,,,0.00,weatherlink.com 1.10,2013-06-04 17:05:00,
2013-06-04 10:20:00,64.9,53.0,30.10,NE,43,2.0,3.0,65,0.00,,,0.00,weatherlink.com 1.10,2013-06-04 17:20:00,
2013-06-04 10:35:00,65.4,53.0,30.10,ENE,58,3.0,3.0,65,0.00,,,0.00,weatherlink.com 1.10,2013-06-04 17:35:00,
2013-06-04 10:50:00,65.7,53.0,30.10,NNE,29,5.0,10.0,63,0.00,,,0.00,weatherlink.com 1.10,2013-06-04 17:50:00,
2013-06-04 11:06:00,66.8,51.0,30.10,North,11,9.0,9.0,58,0.00,,,0.00,weatherlink.com 1.10,2013-06-04 18:06:00,
2013-06-04 11:21:00,66.9,51.0,30.10,NNE,15,7.0,11.0,57,0.00,,,0.00,weatherlink.com 1.10,2013-06-04 18:21:00,
2013-06-04 11:36:00,67.0,51.0,30.10,NNE,26,4.0,9.0,56,0.00,,,0.00,weatherlink.com 1.10,2013-06-04 18:36:00,
2013-06-04 11:51:00,67.6,50.0,30.10,North,8,7.0,10.0,53,0.00,,,0.00,weatherlink.com 1.10,2013-06-04 18:51:00,
2013-06-04 12:06:00,68.6,50.0,30.09,NNE,29,6.0,9.0,52,0.00,,,0.00,weatherlink.com 1.10,2013-06-04 19:06:00,
2013-06-04 12:21:00,68.4,50.0,30.09,NNW,341,6.0,7.0,53,0.00,,,0.00,weatherlink.com 1.10,2013-06-04 19:21:00,
2013-06-04 12:36:00,68.8,49.0,30.08,NE,42,4.0,10.0,49,0.00,,,0.00,weatherlink.com 1.10,2013-06-04 19:36:00,
2013-06-04 13:06:00,70.2,48.0,30.08,NNE,12,6.0,8.0,46,0.00,,,0.00,weatherlink.com 1.10,2013-06-04 20:06:00,
2013-06-04 13:21:00,70.2,48.0,30.08,NNE,18,5.0,10.0,46,0.00,,,0.00,weatherlink.com 1.10,2013-06-04 20:21:00,
2013-06-04 13:51:00,71.0,49.0,30.07,NNW,346,5.0,9.0,45,0.00,,,0.00,weatherlink.com 1.10,2013-06-04 20:51:00,
2013-06-04 14:21:00,71.4,48.0,30.06,NNE,29,6.0,8.0,44,0.00,,,0.00,weatherlink.com 1.10,2013-06-04 21:21:00,
2013-06-04 14:36:00,71.2,49.0,30.06,NNE,27,6.0,9.0,46,0.00,,,0.00,weatherlink.com 1.10,2013-06-04 21:36:00,
2013-06-04 14:51:00,71.8,48.0,30.05,NNE,20,5.0,9.0,43,0.00,,,0.00,weatherlink.com 1.10,2013-06-04 21:51:00,
2013-06-04 15:06:00,72.2,48.0,30.05,NNE,26,6.0,8.0,43,0.00,,,0.00,weatherlink.com 1.10,2013-06-04 22:06:00,
2013-06-04 15:21:00,72.3,48.0,30.05,NNE,13,5.0,8.0,43,0.00,,,0.00,weatherlink.com 1.10,2013-06-04 22:21:00,
2013-06-04 15:36:00,73.2,48.0,30.05,North,354,7.0,8.0,41,0.00,,,0.00,weatherlink.com 1.10,2013-06-04 22:36:00,
2013-06-04 15:51:00,73.6,48.0,30.04,NNE,25,7.0,9.0,41,0.00,,,0.00,weatherlink.com 1.10,2013-06-04 22:51:00,
2013-06-04 16:06:00,73.6,49.0,30.04,North,11,5.0,7.0,42,0.00,,,0.00,weatherlink.com 1.10,2013-06-04 23:06:00,
2013-06-04 16:21:00,74.1,48.0,30.04,North,8,6.0,7.0,40,0.00,,,0.00,weatherlink.com 1.10,2013-06-04 23:21:00,
2013-06-04 16:36:00,74.3,48.0,30.03,NNE,33,5.0,6.0,40,0.00,,,0.00,weatherlink.com 1.10,2013-06-04 23:36:00,
2013-06-04 16:52:00,74.1,51.0,30.03,NNE,30,7.0,8.0,45,0.00,,,0.00,weatherlink.com 1.10,2013-06-04 23:52:00,
2013-06-04 17:07:00,74.1,49.0,30.02,NNE,19,9.0,9.0,41,0.00,,,0.00,weatherlink.com 1.10,2013-06-05 00:07:00,
2013-06-04 17:21:00,72.8,50.0,30.02,North,6,6.0,10.0,44,0.00,,,0.00,weatherlink.com 1.10,2013-06-05 00:21:00,
2013-06-04 17:36:00,73.0,51.0,30.02,NNE,12,9.0,9.0,47,0.00,,,0.00,weatherlink.com 1.10,2013-06-05 00:36:00,
2013-06-04 17:52:00,73.2,51.0,30.02,North,1,5.0,7.0,46,0.00,,,0.00,weatherlink.com 1.10,2013-06-05 00:52:00,
2013-06-04 18:07:00,72.7,51.0,30.01,North,5,6.0,8.0,47,0.00,,,0.00,weatherlink.com 1.10,2013-06-05 01:07:00,
2013-06-04 18:22:00,72.5,52.0,30.01,North,353,5.0,9.0,49,0.00,,,0.00,weatherlink.com 1.10,2013-06-05 01:22:00,
2013-06-04 18:37:00,71.7,52.0,30.01,North,9,6.0,8.0,51,0.00,,,0.00,weatherlink.com 1.10,2013-06-05 01:37:00,
2013-06-04 18:52:00,71.2,50.0,30.01,NNE,23,8.0,9.0,48,0.00,,,0.00,weatherlink.com 1.10,2013-06-05 01:52:00,
2013-06-04 19:07:00,70.3,52.0,30.01,NNE,19,4.0,7.0,53,0.00,,,0.00,weatherlink.com 1.10,2013-06-05 02:07:00,
2013-06-04 19:22:00,70.1,53.0,30.01,NNE,16,6.0,7.0,54,0.00,,,0.00,weatherlink.com 1.10,2013-06-05 02:22:00,
2013-06-04 19:37:00,69.7,51.0,30.01,NNW,340,6.0,9.0,52,0.00,,,0.00,weatherlink.com 1.10,2013-06-05 02:37:00,
2013-06-04 19:52:00,68.9,51.0,30.01,NNW,337,3.0,8.0,53,0.00,,,0.00,weatherlink.com 1.10,2013-06-05 02:52:00,
2013-06-04 20:07:00,69.0,49.0,30.00,North,5,3.0,6.0,49,0.00,,,0.00,weatherlink.com 1.10,2013-06-05 03:07:00,
2013-06-04 20:22:00,68.7,50.0,30.00,NW,326,2.0,3.0,51,0.00,,,0.00,weatherlink.com 1.10,2013-06-05 03:22:00,
2013-06-04 20:37:00,67.7,50.0,30.00,WNW,290,0.0,1.0,54,0.00,,,0.00,weatherlink.com 1.10,2013-06-05 03:37:00,
2013-06-04 20:52:00,66.5,50.0,30.00,WSW,246,1.0,1.0,56,0.00,,,0.00,weatherlink.com 1.10,2013-06-05 03:52:00,
2013-06-04 21:07:00,65.4,49.0,30.00,NNW,338,0.0,1.0,56,0.00,,,0.00,weatherlink.com 1.10,2013-06-05 04:07:00,
2013-06-04 21:22:00,64.7,50.0,30.01,WSW,256,0.0,2.0,59,0.00,,,0.00,weatherlink.com 1.10,2013-06-05 04:22:00,
2013-06-04 21:37:00,63.7,49.0,30.02,West,274,1.0,2.0,60,0.00,,,0.00,weatherlink.com 1.10,2013-06-05 04:37:00,
2013-06-04 21:52:00,62.9,49.0,30.02,West,263,1.0,1.0,60,0.00,,,0.00,weatherlink.com 1.10,2013-06-05 04:52:00,
2013-06-04 22:07:00,62.2,48.0,30.02,West,259,0.0,1.0,60,0.00,,,0.00,weatherlink.com 1.10,2013-06-05 05:07:00,
2013-06-04 22:22:00,60.4,50.0,30.02,SSE,151,0.0,1.0,69,0.00,,,0.00,weatherlink.com 1.10,2013-06-05 05:22:00,
2013-06-04 22:37:00,60.0,48.0,30.02,WSW,255,1.0,2.0,65,0.00,,,0.00,weatherlink.com 1.10,2013-06-05 05:37:00,
2013-06-04 22:52:00,59.3,48.0,30.02,West,268,0.0,2.0,67,0.00,,,0.00,weatherlink.com 1.10,2013-06-05 05:52:00,
2013-06-04 23:07:00,58.6,50.0,30.03,West,276,1.0,1.0,72,0.00,,,0.00,weatherlink.com 1.10,2013-06-05 06:07:00,
2013-06-04 23:22:00,57.7,49.0,30.03,West,270,0.0,1.0,74,0.00,,,0.00,weatherlink.com 1.10,2013-06-05 06:22:00,
2013-06-04 23:37:00,56.8,50.0,30.03,West,262,1.0,2.0,77,0.00,,,0.00,weatherlink.com 1.10,2013-06-05 06:37:00,
2013-06-04 23:52:00,56.5,50.0,30.03,West,259,1.0,2.0,79,0.00,,,0.00,weatherlink.com 1.10,2013-06-05 06:52:00,